createdAt,value
2019-03-30T00:00:47.542Z,9.03
2019-03-30T00:03:17.193Z,8.03
2019-03-30T00:05:47.213Z,7.23
2019-03-30T00:08:16.963Z,8.57
2019-03-30T00:10:47.912Z,8.10
2019-03-30T00:13:17.578Z,9.50
2019-03-30T00:15:48.258Z,8.30
2019-03-30T00:18:18.987Z,9.03
2019-03-30T00:20:48.642Z,9.47
2019-03-30T00:23:18.306Z,9.17
2019-03-30T00:25:47.966Z,10.00
2019-03-30T00:28:17.640Z,10.20
2019-03-30T00:30:47.297Z,10.17
2019-03-30T00:33:17.035Z,9.13
2019-03-30T00:35:48.226Z,9.87
2019-03-30T00:38:17.884Z,10.30
2019-03-30T00:40:47.569Z,8.67
2019-03-30T00:43:17.230Z,8.90
2019-03-30T00:45:47.211Z,9.73
2019-03-30T00:48:16.957Z,8.97
2019-03-30T00:50:49.306Z,8.90
2019-03-30T00:53:18.909Z,8.20
2019-03-30T00:55:48.742Z,8.47
2019-03-30T00:58:18.483Z,8.60
2019-03-30T01:00:48.122Z,8.57
2019-03-30T01:03:17.845Z,8.40
2019-03-30T01:05:47.581Z,9.20
2019-03-30T01:08:17.250Z,7.97
2019-03-30T01:10:47.179Z,8.77
2019-03-30T01:13:16.830Z,8.70
2019-03-30T01:15:46.509Z,8.83
2019-03-30T01:18:16.163Z,9.37
2019-03-30T01:20:45.826Z,9.20
2019-03-30T01:23:16.990Z,8.80
2019-03-30T01:25:46.655Z,9.17
2019-03-30T01:28:16.311Z,9.30
2019-03-30T01:30:45.971Z,9.20
2019-03-30T01:33:15.625Z,9.33
2019-03-30T01:35:45.300Z,8.80
2019-03-30T01:38:14.956Z,8.53
2019-03-30T01:40:44.606Z,8.93
2019-03-30T01:43:14.270Z,8.60
2019-03-30T01:45:44.021Z,8.70
2019-03-30T01:48:13.698Z,8.57
2019-03-30T01:50:43.376Z,8.43
2019-03-30T01:53:13.094Z,8.33
2019-03-30T01:55:42.758Z,8.50
2019-03-30T01:58:12.419Z,8.67
2019-03-30T02:00:42.969Z,9.63
2019-03-30T02:03:12.621Z,8.77
2019-03-30T02:05:42.293Z,9.27
2019-03-30T02:08:12.038Z,9.27
2019-03-30T02:10:44.493Z,8.37
2019-03-30T02:13:14.401Z,9.23
2019-03-30T02:15:45.665Z,8.37
2019-03-30T02:18:15.329Z,8.53
2019-03-30T02:20:47.489Z,8.73
2019-03-30T02:23:17.198Z,8.40
2019-03-30T02:25:46.998Z,8.77
2019-03-30T02:28:16.734Z,8.63
2019-03-30T02:30:46.398Z,8.73
2019-03-30T02:33:16.054Z,8.60
2019-03-30T02:35:45.730Z,9.13
2019-03-30T02:38:15.374Z,9.77
2019-03-30T02:40:45.047Z,9.63
2019-03-30T02:43:14.709Z,8.67
2019-03-30T02:45:44.448Z,9.53
2019-03-30T02:48:14.109Z,9.50
2019-03-30T02:50:49.721Z,9.27
2019-03-30T02:53:15.153Z,9.23
2019-03-30T02:55:44.895Z,8.93
2019-03-30T02:58:14.546Z,8.63
2019-03-30T03:00:44.233Z,8.53
2019-03-30T03:03:15.453Z,9.03
2019-03-30T03:05:45.098Z,8.80
2019-03-30T03:08:16.284Z,9.00
2019-03-30T03:10:45.941Z,9.10
2019-03-30T03:13:15.595Z,9.00
2019-03-30T03:15:45.288Z,9.83
2019-03-30T03:18:14.959Z,9.47
2019-03-30T03:20:44.613Z,9.40
2019-03-30T03:23:15.814Z,9.77
2019-03-30T03:25:45.458Z,9.60
2019-03-30T03:28:15.117Z,9.10
2019-03-30T03:30:44.768Z,9.43
2019-03-30T03:33:14.431Z,10.40
2019-03-30T03:35:44.179Z,9.50
2019-03-30T03:38:13.839Z,9.10
2019-03-30T03:40:43.484Z,9.27
2019-03-30T03:43:13.149Z,8.97
2019-03-30T03:45:43.804Z,9.97
2019-03-30T03:48:13.451Z,9.83
2019-03-30T03:50:46.597Z,9.43
2019-03-30T03:53:17.784Z,9.97
2019-03-30T03:55:47.606Z,9.70
2019-03-30T03:58:18.126Z,9.30
2019-03-30T04:03:34.192Z,9.07
2019-03-30T04:06:07.143Z,9.03
2019-03-30T04:08:37.399Z,9.57
2019-03-30T04:11:10.441Z,9.87
2019-03-30T04:13:41.327Z,9.27
2019-03-30T04:16:10.996Z,10.07
2019-03-30T04:18:40.714Z,9.30
2019-03-30T04:21:10.397Z,9.87
2019-03-30T04:23:40.053Z,10.10
2019-03-30T04:26:09.768Z,10.17
2019-03-30T04:28:39.435Z,10.40
2019-03-30T04:31:09.090Z,9.93
2019-03-30T04:33:38.777Z,10.70
2019-03-30T04:36:08.513Z,9.53
2019-03-30T04:38:38.244Z,9.67
2019-03-30T04:41:07.931Z,10.27
2019-03-30T04:43:37.787Z,10.13
2019-03-30T04:46:07.540Z,10.03
2019-03-30T04:48:37.146Z,9.73
2019-03-30T04:51:06.800Z,10.10
2019-03-30T04:53:36.467Z,10.83
2019-03-30T04:56:06.136Z,10.40
2019-03-30T04:58:35.916Z,10.93
2019-03-30T05:01:05.739Z,10.93
2019-03-30T05:03:35.509Z,10.73
2019-03-30T05:06:05.288Z,11.07
2019-03-30T05:08:35.013Z,10.67
2019-03-30T05:11:04.687Z,11.53
2019-03-30T05:13:34.511Z,11.57
2019-03-30T05:16:04.185Z,12.13
2019-03-30T05:18:33.841Z,11.33
2019-03-30T05:21:03.587Z,10.97
2019-03-30T05:23:33.240Z,12.23
2019-03-30T05:26:03.263Z,11.77
2019-03-30T05:28:34.472Z,11.23
2019-03-30T05:31:04.392Z,11.60
2019-03-30T05:33:34.041Z,11.17
2019-03-30T05:36:05.211Z,11.87
2019-03-30T05:38:34.933Z,11.07
2019-03-30T05:41:04.602Z,11.13
2019-03-30T05:43:34.253Z,11.27
2019-03-30T05:46:03.925Z,10.53
2019-03-30T05:48:33.580Z,10.87
2019-03-30T05:51:03.241Z,10.90
2019-03-30T05:53:32.908Z,11.50
2019-03-30T05:56:02.950Z,11.40
2019-03-30T05:58:32.693Z,11.30
2019-03-30T06:01:02.423Z,11.43
2019-03-30T06:03:32.271Z,12.17
2019-03-30T06:06:01.939Z,11.27
2019-03-30T06:08:31.619Z,11.97
2019-03-30T06:11:01.307Z,12.20
2019-03-30T06:13:30.961Z,13.30
2019-03-30T06:16:00.633Z,12.83
2019-03-30T06:18:30.299Z,11.77
2019-03-30T06:20:59.960Z,12.27
2019-03-30T06:23:29.631Z,12.67
2019-03-30T06:25:59.314Z,13.23
2019-03-30T06:28:28.969Z,13.43
2019-03-30T06:30:58.636Z,13.63
2019-03-30T06:33:28.295Z,13.17
2019-03-30T06:35:57.961Z,13.63
2019-03-30T06:38:27.648Z,13.43
2019-03-30T06:40:57.352Z,14.00
2019-03-30T06:43:34.004Z,12.87
2019-03-30T06:46:03.661Z,13.80
2019-03-30T06:48:36.265Z,13.87
2019-03-30T06:51:06.030Z,13.63
2019-03-30T06:53:35.668Z,13.80
2019-03-30T06:56:05.434Z,13.23
2019-03-30T06:58:35.104Z,15.23
2019-03-30T07:01:05.513Z,13.57
2019-03-30T07:03:35.628Z,13.73
2019-03-30T07:06:05.910Z,14.13
2019-03-30T07:08:37.612Z,14.00
2019-03-30T07:11:20.583Z,15.40
2019-03-30T07:13:42.129Z,15.60
2019-03-30T07:16:11.837Z,14.77
2019-03-30T07:18:43.704Z,15.20
2019-03-30T07:21:14.170Z,14.80
2019-03-30T07:23:43.841Z,14.93
2019-03-30T07:26:13.531Z,15.20
2019-03-30T07:28:47.096Z,14.20
2019-03-30T07:31:16.150Z,14.83
2019-03-30T07:33:45.793Z,14.87
2019-03-30T07:36:15.472Z,15.80
2019-03-30T07:38:45.163Z,15.73
2019-03-30T07:41:14.952Z,15.30
2019-03-30T07:43:44.639Z,14.70
2019-03-30T07:46:19.568Z,15.73
2019-03-30T07:48:48.465Z,16.20
2019-03-30T07:51:18.142Z,16.00
2019-03-30T07:53:47.847Z,14.30
2019-03-30T07:56:19.163Z,15.77
2019-03-30T07:58:48.884Z,15.13
2019-03-30T08:01:20.234Z,16.20
2019-03-30T08:03:51.563Z,14.50
2019-03-30T08:06:21.307Z,15.27
2019-03-30T08:08:51.317Z,15.47
2019-03-30T08:11:20.984Z,15.93
2019-03-30T08:13:50.662Z,15.67
2019-03-30T08:16:21.091Z,15.43
2019-03-30T08:18:50.755Z,16.13
2019-03-30T08:21:20.541Z,17.30
2019-03-30T08:23:50.302Z,17.03
2019-03-30T08:26:21.806Z,16.37
2019-03-30T08:28:51.464Z,16.50
2019-03-30T08:31:21.140Z,16.30
2019-03-30T08:33:50.928Z,16.43
2019-03-30T08:36:20.667Z,16.50
2019-03-30T08:38:50.399Z,17.30
2019-03-30T08:41:20.066Z,16.20
2019-03-30T08:43:49.769Z,17.67
2019-03-30T08:46:20.509Z,17.70
2019-03-30T08:48:50.189Z,18.53
2019-03-30T08:51:21.454Z,17.20
2019-03-30T08:53:54.900Z,16.73
2019-03-30T08:56:22.576Z,17.50
2019-03-30T08:58:52.318Z,17.57
2019-03-30T09:01:21.997Z,16.73
2019-03-30T09:03:51.654Z,17.43
2019-03-30T09:06:22.379Z,18.00
2019-03-30T09:08:52.099Z,16.50
2019-03-30T09:11:21.804Z,17.33
2019-03-30T09:13:51.611Z,18.00
2019-03-30T09:16:21.412Z,16.97
2019-03-30T09:18:51.155Z,17.47
2019-03-30T09:21:20.905Z,16.90
2019-03-30T09:23:50.568Z,17.37
2019-03-30T09:26:20.306Z,17.87
2019-03-30T09:28:51.115Z,17.50
2019-03-30T09:31:20.768Z,17.93
2019-03-30T09:33:50.439Z,19.17
2019-03-30T09:36:20.181Z,17.83
2019-03-30T09:38:49.875Z,18.23
2019-03-30T09:41:19.553Z,18.00
2019-03-30T09:43:49.280Z,17.53
2019-03-30T09:46:18.940Z,17.53
2019-03-30T09:48:48.599Z,18.93
2019-03-30T09:51:18.282Z,17.97
2019-03-30T09:53:48.084Z,17.90
2019-03-30T09:56:17.763Z,17.83
2019-03-30T09:58:47.418Z,18.33
2019-03-30T10:01:17.152Z,16.80
2019-03-30T10:03:46.807Z,17.90
2019-03-30T10:06:16.513Z,16.97
2019-03-30T10:08:46.163Z,17.43
2019-03-30T10:11:15.831Z,17.80
2019-03-30T10:13:45.515Z,17.43
2019-03-30T10:16:15.296Z,16.93
2019-03-30T10:18:44.995Z,17.10
2019-03-30T10:21:14.657Z,16.27
2019-03-30T10:23:44.629Z,17.43
2019-03-30T10:26:14.314Z,15.73
2019-03-30T10:28:47.279Z,16.03
2019-03-30T10:31:16.950Z,16.50
2019-03-30T10:33:46.636Z,16.80
2019-03-30T10:36:17.698Z,16.90
2019-03-30T10:38:47.380Z,16.30
2019-03-30T10:41:17.047Z,17.40
2019-03-30T10:43:46.701Z,15.43
2019-03-30T10:46:16.470Z,15.83
2019-03-30T10:48:46.153Z,16.03
2019-03-30T10:51:15.977Z,15.80
2019-03-30T10:53:45.711Z,15.17
2019-03-30T10:56:15.407Z,14.77
2019-03-30T10:58:46.013Z,14.03
2019-03-30T11:01:17.478Z,14.13
2019-03-30T11:03:47.171Z,14.80
2019-03-30T11:06:16.847Z,15.23
2019-03-30T11:08:46.519Z,14.03
2019-03-30T11:11:16.187Z,15.17
2019-03-30T11:13:45.858Z,14.20
2019-03-30T11:16:15.511Z,14.57
2019-03-30T11:18:45.499Z,14.73
2019-03-30T11:21:15.366Z,13.43
2019-03-30T11:23:45.103Z,13.97
2019-03-30T11:26:14.761Z,13.90
2019-03-30T11:28:44.524Z,14.43
2019-03-30T11:31:14.173Z,15.17
2019-03-30T11:33:43.909Z,15.47
2019-03-30T11:36:13.742Z,16.37
2019-03-30T11:38:43.410Z,14.70
2019-03-30T11:41:13.064Z,15.83
2019-03-30T11:43:42.799Z,15.53
2019-03-30T11:46:12.468Z,15.20
2019-03-30T11:48:42.245Z,15.50
2019-03-30T11:51:11.970Z,14.70
2019-03-30T11:53:41.741Z,13.43
2019-03-30T11:56:11.468Z,14.67
2019-03-30T11:58:41.147Z,14.37
2019-03-30T12:01:10.963Z,14.70
2019-03-30T12:03:40.691Z,15.47
2019-03-30T12:06:10.435Z,13.93
2019-03-30T12:08:40.090Z,13.73
2019-03-30T12:11:09.867Z,13.43
2019-03-30T12:13:39.723Z,12.37
2019-03-30T12:16:09.491Z,13.10
2019-03-30T12:18:39.253Z,12.23
2019-03-30T12:21:08.907Z,11.97
2019-03-30T12:23:38.848Z,14.10
2019-03-30T12:26:08.511Z,12.50
2019-03-30T12:28:38.178Z,14.47
2019-03-30T12:31:07.873Z,11.70
2019-03-30T12:33:38.832Z,12.23
2019-03-30T12:36:08.660Z,12.70
2019-03-30T12:38:38.482Z,13.60
2019-03-30T12:41:08.223Z,11.57
2019-03-30T12:43:39.137Z,11.27
2019-03-30T12:46:09.017Z,11.83
2019-03-30T12:48:38.671Z,12.00
2019-03-30T12:51:09.534Z,11.33
2019-03-30T12:53:49.613Z,10.43
2019-03-30T12:56:10.596Z,9.13
2019-03-30T12:58:40.266Z,5.93
2019-03-30T13:01:10.230Z,7.33
2019-03-30T13:03:39.928Z,9.23
2019-03-30T13:06:09.662Z,8.70
2019-03-30T13:08:39.393Z,6.27
2019-03-30T13:11:09.189Z,7.77
2019-03-30T13:13:38.798Z,6.10
2019-03-30T13:16:08.562Z,6.53
2019-03-30T13:18:38.222Z,6.83
2019-03-30T13:21:07.875Z,7.87
2019-03-30T13:23:37.539Z,7.07
2019-03-30T13:26:07.282Z,6.07
2019-03-30T13:28:36.937Z,6.00
2019-03-30T13:31:06.584Z,5.93
2019-03-30T13:33:36.261Z,6.70
2019-03-30T13:36:10.535Z,8.60
2019-03-30T13:38:39.546Z,8.10
2019-03-30T13:41:09.336Z,8.63
2019-03-30T13:43:39.080Z,8.47
2019-03-30T13:46:08.787Z,7.93
2019-03-30T13:48:38.547Z,7.90
2019-03-30T13:51:08.201Z,7.83
2019-03-30T13:53:37.867Z,8.63
2019-03-30T13:56:17.078Z,9.83
2019-03-30T13:58:39.149Z,8.63
2019-03-30T14:01:08.809Z,7.73
2019-03-30T14:03:38.480Z,7.03
2019-03-30T14:06:09.141Z,7.07
2019-03-30T14:08:43.216Z,6.87
2019-03-30T14:11:13.902Z,8.30
2019-03-30T14:13:43.574Z,6.63
2019-03-30T14:16:15.544Z,6.27
2019-03-30T14:18:45.299Z,7.13
2019-03-30T14:21:14.955Z,7.10
2019-03-30T14:23:44.639Z,7.20
2019-03-30T14:26:14.295Z,6.37
2019-03-30T14:28:43.995Z,6.20
2019-03-30T14:31:13.609Z,6.60
2019-03-30T14:33:43.308Z,6.20
2019-03-30T14:36:12.980Z,6.40
2019-03-30T14:38:42.782Z,5.93
2019-03-30T14:41:12.467Z,5.95
2019-03-30T14:43:45.298Z,6.62
2019-03-30T14:46:15.533Z,5.70
2019-03-30T14:48:45.770Z,5.92
2019-03-30T14:51:16.025Z,5.28
2019-03-30T14:53:45.970Z,6.13
2019-03-30T14:56:15.907Z,5.37
2019-03-30T14:58:45.863Z,5.27
2019-03-30T15:01:17.343Z,5.70
2019-03-30T15:03:47.293Z,5.13
2019-03-30T15:06:20.301Z,4.90
2019-03-30T15:08:51.044Z,4.77
2019-03-30T15:11:20.961Z,4.60
2019-03-30T15:13:50.891Z,4.87
2019-03-30T15:16:20.882Z,5.00
2019-03-30T15:18:50.808Z,4.70
2019-03-30T15:21:20.826Z,4.67
2019-03-30T15:23:50.765Z,5.10
2019-03-30T15:26:22.626Z,5.10
2019-03-30T15:28:54.111Z,5.47
2019-03-30T15:31:25.042Z,4.60
2019-03-30T15:33:54.965Z,5.00
2019-03-30T15:36:24.907Z,4.87
2019-03-30T15:38:54.838Z,5.17
2019-03-30T15:41:24.777Z,5.00
2019-03-30T15:43:54.717Z,4.83
2019-03-30T15:46:24.811Z,5.13
2019-03-30T15:48:54.743Z,5.83
2019-03-30T15:51:24.680Z,4.90
2019-03-30T15:53:54.644Z,4.53
2019-03-30T15:56:24.665Z,4.77
2019-03-30T15:58:54.588Z,4.70
2019-03-30T16:01:24.535Z,4.97
2019-03-30T16:03:56.002Z,4.70
2019-03-30T16:06:26.024Z,4.93
2019-03-30T16:08:55.962Z,5.03
2019-03-30T16:11:25.917Z,6.03
2019-03-30T16:13:55.830Z,4.87
2019-03-30T16:16:25.856Z,4.80
2019-03-30T16:18:57.018Z,5.50
2019-03-30T16:21:26.939Z,4.80
2019-03-30T16:23:57.916Z,4.80
2019-03-30T16:26:41.393Z,4.77
2019-03-30T16:28:59.565Z,4.87
2019-03-30T16:31:29.537Z,4.83
2019-03-30T16:33:59.567Z,4.73
2019-03-30T16:36:29.535Z,5.00
2019-03-30T16:38:59.534Z,5.07
2019-03-30T16:41:29.790Z,5.00
2019-03-30T16:44:00.028Z,4.97
2019-03-30T16:46:30.287Z,5.58
2019-03-30T16:49:00.527Z,6.50
2019-03-30T16:51:30.275Z,7.10
2019-03-30T16:53:59.929Z,5.87
2019-03-30T16:56:29.593Z,6.47
2019-03-30T16:58:59.247Z,8.03
2019-03-30T17:01:28.913Z,9.23
2019-03-30T17:03:58.579Z,6.70
2019-03-30T17:06:28.231Z,5.90
2019-03-30T17:08:57.896Z,6.40
2019-03-30T17:11:29.083Z,7.27
2019-03-30T17:13:58.750Z,6.50
2019-03-30T17:16:28.463Z,6.40
2019-03-30T17:18:58.131Z,6.20
2019-03-30T17:21:27.875Z,7.17
2019-03-30T17:23:57.537Z,7.83
2019-03-30T17:26:28.420Z,8.13
2019-03-30T17:28:58.088Z,7.47
2019-03-30T17:31:27.741Z,7.43
2019-03-30T17:33:57.430Z,6.57
2019-03-30T17:36:27.093Z,7.63
2019-03-30T17:38:56.784Z,9.27
2019-03-30T17:41:26.578Z,9.00
2019-03-30T17:43:56.247Z,7.30
2019-03-30T17:46:25.979Z,7.97
2019-03-30T17:48:55.633Z,7.80
2019-03-30T17:51:25.297Z,7.33
2019-03-30T17:53:55.030Z,7.17
2019-03-30T17:56:24.748Z,8.67
2019-03-30T17:58:54.362Z,10.93
2019-03-30T18:01:25.614Z,12.17
2019-03-30T18:03:55.273Z,11.60
2019-03-30T18:06:24.945Z,12.17
2019-03-30T18:08:55.945Z,8.30
2019-03-30T18:11:25.701Z,9.50
2019-03-30T18:13:56.333Z,18.70
2019-03-30T18:16:26.018Z,10.47
2019-03-30T18:18:57.041Z,12.27
2019-03-30T18:21:26.779Z,11.80
2019-03-30T18:23:56.459Z,11.00
2019-03-30T18:26:27.055Z,11.80
2019-03-30T18:28:58.916Z,12.93
2019-03-30T18:31:28.587Z,12.47
2019-03-30T18:33:58.382Z,11.90
2019-03-30T18:36:29.548Z,10.30
2019-03-30T18:39:09.518Z,10.47
2019-03-30T18:41:31.292Z,10.40
2019-03-30T18:44:02.401Z,10.77
2019-03-30T18:46:33.713Z,9.50
2019-03-30T18:49:03.384Z,9.77
2019-03-30T18:51:33.280Z,10.53
2019-03-30T18:54:03.661Z,10.00
2019-03-30T18:56:33.323Z,10.60
2019-03-30T18:59:02.982Z,9.93
2019-03-30T19:01:32.649Z,9.87
2019-03-30T19:04:02.317Z,10.20
2019-03-30T19:06:31.971Z,9.70
2019-03-30T19:09:01.640Z,10.03
2019-03-30T19:11:31.548Z,10.00
2019-03-30T19:14:01.222Z,10.57
2019-03-30T19:16:33.934Z,9.63
2019-03-30T19:19:03.593Z,10.03
2019-03-30T19:21:33.270Z,8.87
2019-03-30T19:24:02.938Z,9.57
2019-03-30T19:26:34.143Z,9.60
2019-03-30T19:29:03.878Z,9.27
2019-03-30T19:31:33.563Z,8.90
2019-03-30T19:34:03.230Z,8.60
2019-03-30T19:36:32.961Z,8.97
2019-03-30T19:39:02.944Z,7.90
2019-03-30T19:41:32.681Z,8.63
2019-03-30T19:44:02.349Z,10.33
2019-03-30T19:46:32.577Z,10.10
2019-03-30T19:49:02.272Z,9.70
2019-03-30T19:51:33.149Z,11.17
2019-03-30T19:54:02.905Z,10.27
2019-03-30T19:56:34.042Z,11.20
2019-03-30T19:59:10.652Z,10.80
2019-03-30T20:01:35.108Z,10.33
2019-03-30T20:04:07.721Z,10.00
2019-03-30T20:06:36.278Z,9.70
2019-03-30T20:09:10.454Z,8.33
2019-03-30T20:11:40.122Z,9.00
2019-03-30T20:14:09.772Z,8.23
2019-03-30T20:16:42.238Z,8.00
2019-03-30T20:19:13.285Z,8.70
2019-03-30T20:21:42.954Z,8.17
2019-03-30T20:24:12.625Z,6.53
2019-03-30T20:26:42.283Z,7.30
2019-03-30T20:29:24.690Z,6.70
2019-03-30T20:31:43.317Z,7.77
2019-03-30T20:34:12.987Z,6.70
2019-03-30T20:36:42.677Z,6.87
2019-03-30T20:39:12.339Z,6.77
2019-03-30T20:41:42.199Z,7.03
2019-03-30T20:44:11.853Z,7.03
2019-03-30T20:46:43.746Z,7.00
2019-03-30T20:49:15.460Z,6.50
2019-03-30T20:51:45.120Z,6.70
2019-03-30T20:54:14.795Z,7.10
2019-03-30T20:56:45.799Z,6.20
2019-03-30T20:59:15.449Z,6.77
2019-03-30T21:01:45.105Z,6.87
2019-03-30T21:04:14.788Z,6.87
2019-03-30T21:06:46.919Z,6.53
2019-03-30T21:09:16.598Z,7.20
2019-03-30T21:11:46.255Z,7.30
2019-03-30T21:14:15.959Z,7.50
2019-03-30T21:16:45.903Z,7.00
2019-03-30T21:19:15.564Z,6.97
2019-03-30T21:21:45.319Z,6.63
2019-03-30T21:24:14.976Z,7.40
2019-03-30T21:26:44.678Z,6.93
2019-03-30T21:29:14.329Z,6.80
2019-03-30T21:31:43.993Z,7.50
2019-03-30T21:34:14.607Z,6.57
2019-03-30T21:36:45.839Z,6.97
2019-03-30T21:39:16.594Z,7.10
2019-03-30T21:41:46.254Z,6.50
2019-03-30T21:44:21.756Z,6.77
2019-03-30T21:46:47.374Z,7.07
2019-03-30T21:49:17.046Z,7.40
2019-03-30T21:51:46.712Z,7.37
2019-03-30T21:54:16.436Z,7.43
2019-03-30T21:56:46.119Z,7.80
2019-03-30T21:59:15.852Z,7.83
2019-03-30T22:01:45.508Z,7.77
2019-03-30T22:04:15.190Z,7.93
2019-03-30T22:06:44.837Z,7.60
2019-03-30T22:09:14.562Z,7.87
2019-03-30T22:11:44.298Z,8.17
2019-03-30T22:14:13.967Z,8.03
2019-03-30T22:16:43.710Z,8.90
2019-03-30T22:19:13.351Z,7.53
2019-03-30T22:21:43.015Z,8.13
2019-03-30T22:24:12.679Z,8.17
2019-03-30T22:26:42.332Z,8.70
2019-03-30T22:29:11.996Z,7.70
2019-03-30T22:31:42.787Z,7.87
2019-03-30T22:34:12.438Z,7.33
2019-03-30T22:36:42.113Z,6.83
2019-03-30T22:39:11.763Z,7.63
2019-03-30T22:41:41.429Z,8.10
2019-03-30T22:44:11.099Z,7.90
2019-03-30T22:46:40.752Z,7.87
2019-03-30T22:49:10.404Z,7.27
2019-03-30T22:51:40.056Z,7.57
2019-03-30T22:54:09.727Z,6.90
2019-03-30T22:56:39.380Z,6.77
2019-03-30T22:59:09.047Z,7.00
2019-03-30T23:01:38.777Z,6.80
2019-03-30T23:04:08.521Z,7.33
2019-03-30T23:06:38.212Z,7.43
2019-03-30T23:09:11.256Z,7.30
2019-03-30T23:11:39.451Z,7.80
2019-03-30T23:14:09.119Z,7.00
2019-03-30T23:16:38.772Z,6.77
2019-03-30T23:19:08.439Z,7.20
2019-03-30T23:21:38.091Z,6.87
2019-03-30T23:24:08.880Z,6.17
2019-03-30T23:26:38.534Z,6.63
2019-03-30T23:29:08.204Z,6.13
2019-03-30T23:31:37.869Z,6.33
2019-03-30T23:34:09.060Z,6.27
2019-03-30T23:36:38.727Z,6.53
2019-03-30T23:39:09.605Z,6.03
2019-03-30T23:41:39.271Z,6.33
2019-03-30T23:44:08.935Z,6.40
2019-03-30T23:46:38.601Z,6.03
2019-03-30T23:49:08.263Z,6.27
2019-03-30T23:51:38.008Z,5.67
2019-03-30T23:54:11.710Z,6.03
2019-03-30T23:56:41.487Z,5.70
2019-03-30T23:59:11.157Z,6.33
